This is the latest recevied weather packets stored in our database for station/object PACCTY. If no packets are shown the sender has not sent any weather packets the latest 10 day(s).
| Time | Temp. | Humidity | Pressure | Rain* | Wind** | Luminosity | Snow |
|---|---|---|---|---|---|---|---|
| 1777488908 | 15.56° C | 64% | 1022.1 hPa | 0 mm | - | - | - |
| 1777488608 | 15.56° C | 67% | 1022.2 hPa | 0 mm | - | - | - |
| 1777488009 | 15° C | 66% | 1022.3 hPa | 0 mm | - | - | - |
| 1777487708 | 15° C | 68% | 1022.3 hPa | 0 mm | - | - | - |
| 1777487408 | 15° C | 67% | 1022.4 hPa | 0 mm | - | - | - |
| 1777486807 | 14.44° C | 69% | 1022.4 hPa | 0 mm | - | - | - |
| 1777486507 | 14.44° C | 69% | 1022.5 hPa | 0 mm | - | - | - |
| 1777486208 | 14.44° C | 67% | 1022.6 hPa | 0 mm | - | - | - |
| 1777485608 | 13.89° C | 69% | 1022.6 hPa | 0 mm | - | - | - |
| 1777485355 | 13.89° C | 69% | 1022.6 hPa | 0 mm | - | - | - |
| 1777485308 | 13.89° C | 69% | 1022.6 hPa | 0 mm | - | - | - |
| 1777484408 | 13.33° C | 73% | 1022.7 hPa | 0 mm | - | - | - |
| 1777484106 | 13.33° C | 74% | 1022.7 hPa | 0 mm | - | - | - |
| 1777483808 | 13.33° C | 77% | 1022.7 hPa | 0 mm | - | - | - |
| 1777483509 | 12.78° C | 78% | 1022.7 hPa | 0 mm | - | - | - |
| 1777483206 | 12.78° C | 76% | 1022.7 hPa | 0 mm | - | - | - |
| 1777482906 | 12.22° C | 77% | 1022.8 hPa | 0 mm | - | - | - |
| 1777482306 | 11.11° C | 81% | 1022.8 hPa | 0 mm | - | - | - |
| 1777480807 | 9.44° C | 87% | 1023.1 hPa | 0 mm | - | - | - |
| 1777480507 | 9.44° C | 88% | 1023.2 hPa | 0 mm | - | - | - |
| 1777480206 | 8.89° C | 89% | 1023.3 hPa | 0 mm | - | - | - |
| 1777479607 | 8.33° C | 90% | 1023.4 hPa | 0 mm | - | - | - |
| 1777479307 | 8.33° C | 91% | 1023.3 hPa | 0 mm | - | - | - |
| 1777478707 | 7.78° C | 93% | 1023.5 hPa | 0 mm | - | - | - |
| 1777478406 | 7.78° C | 94% | 1023.5 hPa | 0 mm | - | - | - |
* Rain latest hour (hover to see other rain measurements)
** Current wind speed in m/s (hover to see current wind gust speed)